首页
METAR-TAF:

METAR-TAF

机场 :

柏加謝沃機場

托木斯克, 俄罗斯

纬度: 56-23-12N, 经度: 085-12-38E, 海拔: 182米

当前天气观测

该预报发布于27分钟前的01:30 UTC
风速6节,风向南转西南
温度 10°C
湿度 100%
气压 1004 hPa
能见度10公里或以上
散云层高于1000英尺, 积雨云.
多云层高于4300英尺

METAR: UNTT 310130Z 21003MPS 9999 SCT010CB BKN043 10/10 Q1004 R21/290050 NOSIG RMK QFE738

时间: 08:57 (01:57 UTC)

预报

该预报发布于2小时和58分钟前的22:59 UTC
预报有效从31日的 00点(UTC)到 31日的 09点(UTC)
风速10节,风向西转西南,有时为19节阵风
能见度10公里或以上
散云层高于3000英尺, 积雨云.
小阵雨
短暂存在
从 31日的 00点(UTC)到 31日的 03点(UTC)
多云层高于800英尺
多云层高于1600英尺, 积雨云.
成为
从 31日的 03点(UTC)到 31日的 06点(UTC)
风速19节,风向西,有时为29节阵风

TAF: UNTT 302259Z 3100/3109 24005G10MPS 9999 -SHRA SCT030CB TEMPO 3100/3103 BKN008 BKN016CB BECMG 3103/3106 28010G15MPS

超过4000个机场的气象观测和天气预报(METAR&TAF报告)。

可查询的气象台以黄色和红色小点在地图上表示。

将鼠标移到小点上方,可查看气象台名称。

然后点击查看天气观测和预报。

如需切换地图:点击带黑十字的绿色按钮放大地图;点击带横线的绿色按钮缩小地图;或者点击绿色箭头查看邻近地区的地图。


METAR-TAF: